sensor_id;sensor_type;location;lat;lon;timestamp;temperature;humidity
25983;DHT22;13773;48.868;10.730;2023-03-03T00:02:04;0.80;99.90
25983;DHT22;13773;48.868;10.730;2023-03-03T00:04:30;0.70;99.90
25983;DHT22;13773;48.868;10.730;2023-03-03T00:06:55;0.70;99.90
25983;DHT22;13773;48.868;10.730;2023-03-03T00:09:21;0.50;99.90
25983;DHT22;13773;48.868;10.730;2023-03-03T00:11:51;0.50;99.90
25983;DHT22;13773;48.868;10.730;2023-03-03T00:14:29;0.50;99.90
25983;DHT22;13773;48.868;10.730;2023-03-03T00:16:56;0.40;99.90
25983;DHT22;13773;48.868;10.730;2023-03-03T00:19:24;0.40;99.90
25983;DHT22;13773;48.868;10.730;2023-03-03T00:21:51;0.40;99.90
25983;DHT22;13773;48.868;10.730;2023-03-03T00:24:24;0.40;99.90
25983;DHT22;13773;48.868;10.730;2023-03-03T00:26:51;0.30;99.90
25983;DHT22;13773;48.868;10.730;2023-03-03T00:29:40;0.20;99.90
25983;DHT22;13773;48.868;10.730;2023-03-03T00:34:41;0.10;99.90
25983;DHT22;13773;48.868;10.730;2023-03-03T00:39:48;0.00;99.90
25983;DHT22;13773;48.868;10.730;2023-03-03T00:42:15;0.00;99.90
25983;DHT22;13773;48.868;10.730;2023-03-03T00:44:47;0.00;99.90
25983;DHT22;13773;48.868;10.730;2023-03-03T00:47:36;0.00;99.90
25983;DHT22;13773;48.868;10.730;2023-03-03T00:52:35;-0.20;99.90
25983;DHT22;13773;48.868;10.730;2023-03-03T00:55:01;-0.20;99.90
25983;DHT22;13773;48.868;10.730;2023-03-03T00:57:28;-0.10;99.90
25983;DHT22;13773;48.868;10.730;2023-03-03T00:59:54;-0.30;99.90
25983;DHT22;13773;48.868;10.730;2023-03-03T01:02:20;-0.30;99.90
25983;DHT22;13773;48.868;10.730;2023-03-03T01:04:49;-0.30;99.90
25983;DHT22;13773;48.868;10.730;2023-03-03T01:07:16;-0.30;99.90
25983;DHT22;13773;48.868;10.730;2023-03-03T01:09:41;-0.30;99.90
25983;DHT22;13773;48.868;10.730;2023-03-03T01:12:08;-0.30;99.90
25983;DHT22;13773;48.868;10.730;2023-03-03T01:14:34;-0.40;99.90
25983;DHT22;13773;48.868;10.730;2023-03-03T01:17:00;-0.20;99.90
25983;DHT22;13773;48.868;10.730;2023-03-03T01:19:25;-0.30;99.90
25983;DHT22;13773;48.868;10.730;2023-03-03T01:21:51;-0.30;99.90
25983;DHT22;13773;48.868;10.730;2023-03-03T01:24:17;-0.50;99.90
25983;DHT22;13773;48.868;10.730;2023-03-03T01:26:42;-0.50;99.90
25983;DHT22;13773;48.868;10.730;2023-03-03T01:29:08;-0.50;99.90
25983;DHT22;13773;48.868;10.730;2023-03-03T01:31:34;-0.20;99.90
25983;DHT22;13773;48.868;10.730;2023-03-03T01:34:00;-0.30;99.90
25983;DHT22;13773;48.868;10.730;2023-03-03T01:36:27;-0.40;99.90
25983;DHT22;13773;48.868;10.730;2023-03-03T01:38:52;-0.40;99.90
25983;DHT22;13773;48.868;10.730;2023-03-03T01:41:18;-0.50;99.90
25983;DHT22;13773;48.868;10.730;2023-03-03T01:43:47;-0.40;99.90
25983;DHT22;13773;48.868;10.730;2023-03-03T01:46:33;-0.50;99.90
25983;DHT22;13773;48.868;10.730;2023-03-03T01:49:20;-0.60;99.90
25983;DHT22;13773;48.868;10.730;2023-03-03T01:51:51;-0.60;99.90
25983;DHT22;13773;48.868;10.730;2023-03-03T01:54:35;-0.50;99.90
25983;DHT22;13773;48.868;10.730;2023-03-03T01:57:05;-0.70;99.90
25983;DHT22;13773;48.868;10.730;2023-03-03T01:59:35;-0.70;99.90
25983;DHT22;13773;48.868;10.730;2023-03-03T02:02:03;-0.60;99.90
25983;DHT22;13773;48.868;10.730;2023-03-03T02:04:29;-0.50;99.90
25983;DHT22;13773;48.868;10.730;2023-03-03T02:07:01;-0.40;99.90
25983;DHT22;13773;48.868;10.730;2023-03-03T02:09:40;-0.40;99.90
25983;DHT22;13773;48.868;10.730;2023-03-03T02:12:10;-0.50;99.90
25983;DHT22;13773;48.868;10.730;2023-03-03T02:14:38;-0.70;99.90
25983;DHT22;13773;48.868;10.730;2023-03-03T02:17:03;-0.70;99.90
25983;DHT22;13773;48.868;10.730;2023-03-03T02:22:31;-0.80;99.90
25983;DHT22;13773;48.868;10.730;2023-03-03T02:25:01;-0.90;99.90
25983;DHT22;13773;48.868;10.730;2023-03-03T02:27:30;-0.80;99.90
25983;DHT22;13773;48.868;10.730;2023-03-03T02:29:56;-0.90;99.90
25983;DHT22;13773;48.868;10.730;2023-03-03T02:32:23;-1.00;99.90
25983;DHT22;13773;48.868;10.730;2023-03-03T02:34:51;-1.00;99.90
25983;DHT22;13773;48.868;10.730;2023-03-03T02:37:18;-1.10;99.90
25983;DHT22;13773;48.868;10.730;2023-03-03T02:39:44;-1.20;99.90
25983;DHT22;13773;48.868;10.730;2023-03-03T02:42:23;-1.20;99.90
25983;DHT22;13773;48.868;10.730;2023-03-03T02:44:50;-1.10;99.90
25983;DHT22;13773;48.868;10.730;2023-03-03T02:47:15;-1.10;99.90
25983;DHT22;13773;48.868;10.730;2023-03-03T02:49:41;-1.00;99.90
25983;DHT22;13773;48.868;10.730;2023-03-03T02:52:09;-1.00;99.90
25983;DHT22;13773;48.868;10.730;2023-03-03T02:54:35;-1.00;99.90
25983;DHT22;13773;48.868;10.730;2023-03-03T02:57:01;-1.10;99.90
25983;DHT22;13773;48.868;10.730;2023-03-03T02:59:27;-1.10;99.90
25983;DHT22;13773;48.868;10.730;2023-03-03T03:01:54;-1.20;99.90
25983;DHT22;13773;48.868;10.730;2023-03-03T03:04:22;-1.10;99.90
25983;DHT22;13773;48.868;10.730;2023-03-03T03:06:48;-1.10;99.90
25983;DHT22;13773;48.868;10.730;2023-03-03T03:09:15;-1.10;99.90
25983;DHT22;13773;48.868;10.730;2023-03-03T03:11:41;-1.10;99.90
25983;DHT22;13773;48.868;10.730;2023-03-03T03:14:09;-1.10;99.90
25983;DHT22;13773;48.868;10.730;2023-03-03T03:16:34;-1.10;99.90
25983;DHT22;13773;48.868;10.730;2023-03-03T03:19:01;-1.20;99.90
25983;DHT22;13773;48.868;10.730;2023-03-03T03:21:28;-1.20;99.90
25983;DHT22;13773;48.868;10.730;2023-03-03T03:23:54;-1.30;99.90
25983;DHT22;13773;48.868;10.730;2023-03-03T03:26:20;-1.30;99.90
25983;DHT22;13773;48.868;10.730;2023-03-03T03:28:47;-1.40;99.90
25983;DHT22;13773;48.868;10.730;2023-03-03T03:31:14;-1.30;99.90
25983;DHT22;13773;48.868;10.730;2023-03-03T03:33:39;-1.40;99.90
25983;DHT22;13773;48.868;10.730;2023-03-03T03:36:05;-1.40;99.90
25983;DHT22;13773;48.868;10.730;2023-03-03T03:38:32;-1.40;99.90
25983;DHT22;13773;48.868;10.730;2023-03-03T03:40:58;-1.40;99.90
25983;DHT22;13773;48.868;10.730;2023-03-03T03:43:24;-1.30;99.90
25983;DHT22;13773;48.868;10.730;2023-03-03T03:45:51;-1.30;99.90
25983;DHT22;13773;48.868;10.730;2023-03-03T03:48:16;-1.10;99.90
25983;DHT22;13773;48.868;10.730;2023-03-03T03:50:44;-1.10;99.90
25983;DHT22;13773;48.868;10.730;2023-03-03T03:53:10;-1.10;99.90
25983;DHT22;13773;48.868;10.730;2023-03-03T03:55:35;-1.20;99.90
25983;DHT22;13773;48.868;10.730;2023-03-03T03:58:01;-1.30;99.90
25983;DHT22;13773;48.868;10.730;2023-03-03T04:00:27;-1.40;99.90
25983;DHT22;13773;48.868;10.730;2023-03-03T04:02:53;-1.50;99.90
25983;DHT22;13773;48.868;10.730;2023-03-03T04:05:19;-1.50;99.90
25983;DHT22;13773;48.868;10.730;2023-03-03T04:07:45;-1.60;99.90
25983;DHT22;13773;48.868;10.730;2023-03-03T04:10:11;-1.60;99.90
25983;DHT22;13773;48.868;10.730;2023-03-03T04:12:37;-1.60;99.90
25983;DHT22;13773;48.868;10.730;2023-03-03T04:15:12;-1.70;99.90
25983;DHT22;13773;48.868;10.730;2023-03-03T04:17:38;-1.60;99.90
25983;DHT22;13773;48.868;10.730;2023-03-03T04:20:05;-1.50;99.90
25983;DHT22;13773;48.868;10.730;2023-03-03T04:22:31;-1.50;99.90
25983;DHT22;13773;48.868;10.730;2023-03-03T04:24:59;-1.40;99.90
25983;DHT22;13773;48.868;10.730;2023-03-03T04:27:25;-1.30;99.90
25983;DHT22;13773;48.868;10.730;2023-03-03T04:29:50;-1.20;99.90
25983;DHT22;13773;48.868;10.730;2023-03-03T04:32:16;-1.00;99.90
25983;DHT22;13773;48.868;10.730;2023-03-03T04:34:43;-1.00;99.90
25983;DHT22;13773;48.868;10.730;2023-03-03T04:37:08;-0.80;99.90
25983;DHT22;13773;48.868;10.730;2023-03-03T04:39:34;-0.70;99.90
25983;DHT22;13773;48.868;10.730;2023-03-03T04:42:00;-0.70;99.90
25983;DHT22;13773;48.868;10.730;2023-03-03T04:44:26;-0.60;99.90
25983;DHT22;13773;48.868;10.730;2023-03-03T04:46:51;-0.50;99.90
25983;DHT22;13773;48.868;10.730;2023-03-03T04:49:17;-0.40;99.90
25983;DHT22;13773;48.868;10.730;2023-03-03T04:51:42;-0.40;99.90
25983;DHT22;13773;48.868;10.730;2023-03-03T04:54:08;-0.40;99.90
25983;DHT22;13773;48.868;10.730;2023-03-03T04:56:34;-0.40;99.90
25983;DHT22;13773;48.868;10.730;2023-03-03T04:59:00;-0.40;99.90
25983;DHT22;13773;48.868;10.730;2023-03-03T05:01:25;-0.40;99.90
25983;DHT22;13773;48.868;10.730;2023-03-03T05:03:51;-0.30;99.90
25983;DHT22;13773;48.868;10.730;2023-03-03T05:06:17;-0.30;99.90
25983;DHT22;13773;48.868;10.730;2023-03-03T05:08:44;-0.30;99.90
25983;DHT22;13773;48.868;10.730;2023-03-03T05:11:10;-0.30;99.90
25983;DHT22;13773;48.868;10.730;2023-03-03T05:13:35;-0.30;99.90
25983;DHT22;13773;48.868;10.730;2023-03-03T05:16:01;-0.20;99.90
25983;DHT22;13773;48.868;10.730;2023-03-03T05:18:27;-0.20;99.90
25983;DHT22;13773;48.868;10.730;2023-03-03T05:20:53;-0.20;99.90
25983;DHT22;13773;48.868;10.730;2023-03-03T05:23:19;-0.10;99.90
25983;DHT22;13773;48.868;10.730;2023-03-03T05:25:48;-0.10;99.90
25983;DHT22;13773;48.868;10.730;2023-03-03T05:28:14;-0.10;99.90
25983;DHT22;13773;48.868;10.730;2023-03-03T05:30:40;0.00;99.90
25983;DHT22;13773;48.868;10.730;2023-03-03T05:33:06;0.00;99.90
25983;DHT22;13773;48.868;10.730;2023-03-03T05:35:32;0.00;99.90
25983;DHT22;13773;48.868;10.730;2023-03-03T05:37:58;0.00;99.90
25983;DHT22;13773;48.868;10.730;2023-03-03T05:40:25;0.00;99.90
25983;DHT22;13773;48.868;10.730;2023-03-03T05:42:51;-0.10;99.90
25983;DHT22;13773;48.868;10.730;2023-03-03T05:45:18;-0.10;99.90
25983;DHT22;13773;48.868;10.730;2023-03-03T05:47:49;-0.10;99.90
25983;DHT22;13773;48.868;10.730;2023-03-03T05:50:16;-0.10;99.90
25983;DHT22;13773;48.868;10.730;2023-03-03T05:52:42;-0.20;99.90
25983;DHT22;13773;48.868;10.730;2023-03-03T05:55:09;-0.20;99.90
25983;DHT22;13773;48.868;10.730;2023-03-03T05:57:34;-0.20;99.90
25983;DHT22;13773;48.868;10.730;2023-03-03T06:00:02;-0.20;99.90
25983;DHT22;13773;48.868;10.730;2023-03-03T06:02:28;-0.20;99.90
25983;DHT22;13773;48.868;10.730;2023-03-03T06:04:53;-0.20;99.90
25983;DHT22;13773;48.868;10.730;2023-03-03T06:07:19;-0.10;99.90
25983;DHT22;13773;48.868;10.730;2023-03-03T06:09:45;-0.20;99.90
25983;DHT22;13773;48.868;10.730;2023-03-03T06:12:10;-0.20;99.90
25983;DHT22;13773;48.868;10.730;2023-03-03T06:14:36;-0.20;99.90
25983;DHT22;13773;48.868;10.730;2023-03-03T06:17:02;-0.20;99.90
25983;DHT22;13773;48.868;10.730;2023-03-03T06:19:28;-0.30;99.90
25983;DHT22;13773;48.868;10.730;2023-03-03T06:21:53;-0.20;99.90
25983;DHT22;13773;48.868;10.730;2023-03-03T06:24:19;-0.30;99.90
25983;DHT22;13773;48.868;10.730;2023-03-03T06:26:45;-0.20;99.90
25983;DHT22;13773;48.868;10.730;2023-03-03T06:29:11;-0.20;99.90
25983;DHT22;13773;48.868;10.730;2023-03-03T06:31:36;-0.20;99.90
25983;DHT22;13773;48.868;10.730;2023-03-03T06:34:02;-0.20;99.90
25983;DHT22;13773;48.868;10.730;2023-03-03T06:36:28;-0.20;99.90
25983;DHT22;13773;48.868;10.730;2023-03-03T06:38:53;-0.10;99.90
25983;DHT22;13773;48.868;10.730;2023-03-03T06:41:19;-0.10;99.90
25983;DHT22;13773;48.868;10.730;2023-03-03T06:43:45;0.00;99.90
25983;DHT22;13773;48.868;10.730;2023-03-03T06:46:10;0.10;99.90
25983;DHT22;13773;48.868;10.730;2023-03-03T06:48:36;0.10;99.90
25983;DHT22;13773;48.868;10.730;2023-03-03T06:51:15;0.10;99.90
25983;DHT22;13773;48.868;10.730;2023-03-03T06:53:42;0.10;99.90
25983;DHT22;13773;48.868;10.730;2023-03-03T06:56:08;0.10;99.90
25983;DHT22;13773;48.868;10.730;2023-03-03T06:58:34;0.10;99.90
25983;DHT22;13773;48.868;10.730;2023-03-03T07:01:01;0.20;99.90
25983;DHT22;13773;48.868;10.730;2023-03-03T07:03:33;0.20;99.90
25983;DHT22;13773;48.868;10.730;2023-03-03T07:05:59;0.20;99.90
25983;DHT22;13773;48.868;10.730;2023-03-03T07:08:30;0.30;99.90
25983;DHT22;13773;48.868;10.730;2023-03-03T07:11:00;0.30;99.90
25983;DHT22;13773;48.868;10.730;2023-03-03T07:13:28;0.40;99.90
25983;DHT22;13773;48.868;10.730;2023-03-03T07:15:56;0.30;99.90
25983;DHT22;13773;48.868;10.730;2023-03-03T07:20:58;0.30;99.90
25983;DHT22;13773;48.868;10.730;2023-03-03T07:23:38;0.50;99.90
25983;DHT22;13773;48.868;10.730;2023-03-03T07:26:19;0.50;99.90
25983;DHT22;13773;48.868;10.730;2023-03-03T07:28:55;0.50;99.90
25983;DHT22;13773;48.868;10.730;2023-03-03T07:31:35;0.60;99.90
25983;DHT22;13773;48.868;10.730;2023-03-03T07:34:14;0.70;99.90
25983;DHT22;13773;48.868;10.730;2023-03-03T07:36:41;0.90;99.90
25983;DHT22;13773;48.868;10.730;2023-03-03T07:42:11;1.00;99.90
25983;DHT22;13773;48.868;10.730;2023-03-03T07:44:38;1.10;99.90
25983;DHT22;13773;48.868;10.730;2023-03-03T07:47:26;1.20;99.90
25983;DHT22;13773;48.868;10.730;2023-03-03T07:49:58;1.30;99.90
25983;DHT22;13773;48.868;10.730;2023-03-03T07:52:36;1.30;99.90
25983;DHT22;13773;48.868;10.730;2023-03-03T07:55:28;1.40;99.90
25983;DHT22;13773;48.868;10.730;2023-03-03T07:57:54;1.50;99.90
25983;DHT22;13773;48.868;10.730;2023-03-03T08:03:03;1.60;99.90
25983;DHT22;13773;48.868;10.730;2023-03-03T08:05:37;1.70;99.90
25983;DHT22;13773;48.868;10.730;2023-03-03T08:10:43;2.00;99.90
25983;DHT22;13773;48.868;10.730;2023-03-03T08:13:18;2.00;99.90
25983;DHT22;13773;48.868;10.730;2023-03-03T08:15:48;2.10;99.90
25983;DHT22;13773;48.868;10.730;2023-03-03T08:18:22;2.20;99.90
25983;DHT22;13773;48.868;10.730;2023-03-03T08:20:54;2.20;99.90
25983;DHT22;13773;48.868;10.730;2023-03-03T08:23:20;2.40;99.90
25983;DHT22;13773;48.868;10.730;2023-03-03T08:25:48;2.40;99.90
25983;DHT22;13773;48.868;10.730;2023-03-03T08:28:15;2.40;99.90
25983;DHT22;13773;48.868;10.730;2023-03-03T08:30:41;2.40;99.90
25983;DHT22;13773;48.868;10.730;2023-03-03T08:33:07;2.30;99.90
25983;DHT22;13773;48.868;10.730;2023-03-03T08:35:33;2.30;99.90
25983;DHT22;13773;48.868;10.730;2023-03-03T08:37:59;2.20;99.90
25983;DHT22;13773;48.868;10.730;2023-03-03T08:40:25;2.20;99.90
25983;DHT22;13773;48.868;10.730;2023-03-03T08:42:51;2.20;99.90
25983;DHT22;13773;48.868;10.730;2023-03-03T08:45:16;2.40;99.90
25983;DHT22;13773;48.868;10.730;2023-03-03T08:47:42;2.60;99.90
25983;DHT22;13773;48.868;10.730;2023-03-03T08:50:09;2.60;99.90
25983;DHT22;13773;48.868;10.730;2023-03-03T08:52:35;2.70;99.90
25983;DHT22;13773;48.868;10.730;2023-03-03T08:55:01;2.60;99.90
25983;DHT22;13773;48.868;10.730;2023-03-03T08:57:27;2.60;99.90
25983;DHT22;13773;48.868;10.730;2023-03-03T08:59:53;2.70;99.90
25983;DHT22;13773;48.868;10.730;2023-03-03T09:02:18;2.90;99.90
25983;DHT22;13773;48.868;10.730;2023-03-03T09:04:44;3.00;99.90
25983;DHT22;13773;48.868;10.730;2023-03-03T09:07:10;3.20;99.90
25983;DHT22;13773;48.868;10.730;2023-03-03T09:09:35;3.30;99.90
25983;DHT22;13773;48.868;10.730;2023-03-03T09:12:18;3.30;99.90
25983;DHT22;13773;48.868;10.730;2023-03-03T09:14:45;3.30;99.90
25983;DHT22;13773;48.868;10.730;2023-03-03T09:17:30;3.50;99.90
25983;DHT22;13773;48.868;10.730;2023-03-03T09:19:59;3.60;99.90
25983;DHT22;13773;48.868;10.730;2023-03-03T09:22:27;3.70;99.90
25983;DHT22;13773;48.868;10.730;2023-03-03T09:24:56;3.70;99.90
25983;DHT22;13773;48.868;10.730;2023-03-03T09:27:31;3.70;99.90
25983;DHT22;13773;48.868;10.730;2023-03-03T09:32:58;3.90;99.90
25983;DHT22;13773;48.868;10.730;2023-03-03T09:52:02;4.70;99.90
25983;DHT22;13773;48.868;10.730;2023-03-03T10:11:43;5.60;99.90
25983;DHT22;13773;48.868;10.730;2023-03-03T10:14:38;5.90;99.90
25983;DHT22;13773;48.868;10.730;2023-03-03T10:19:40;6.10;99.90
25983;DHT22;13773;48.868;10.730;2023-03-03T10:36:10;5.10;99.90
25983;DHT22;13773;48.868;10.730;2023-03-03T10:41:37;5.30;99.90
25983;DHT22;13773;48.868;10.730;2023-03-03T10:49:13;5.10;99.90
25983;DHT22;13773;48.868;10.730;2023-03-03T11:00:22;5.80;99.90
25983;DHT22;13773;48.868;10.730;2023-03-03T11:05:41;5.80;99.90
25983;DHT22;13773;48.868;10.730;2023-03-03T11:08:39;5.90;99.90
25983;DHT22;13773;48.868;10.730;2023-03-03T11:11:19;6.10;99.90
25983;DHT22;13773;48.868;10.730;2023-03-03T11:14:23;6.30;99.90
25983;DHT22;13773;48.868;10.730;2023-03-03T11:30:29;6.30;99.90
25983;DHT22;13773;48.868;10.730;2023-03-03T11:33:09;6.60;99.90
25983;DHT22;13773;48.868;10.730;2023-03-03T11:36:17;6.70;99.90
25983;DHT22;13773;48.868;10.730;2023-03-03T11:41:21;6.50;99.90
25983;DHT22;13773;48.868;10.730;2023-03-03T11:43:55;6.60;99.90
25983;DHT22;13773;48.868;10.730;2023-03-03T11:46:35;6.70;99.90
25983;DHT22;13773;48.868;10.730;2023-03-03T11:49:21;6.70;99.90
25983;DHT22;13773;48.868;10.730;2023-03-03T11:51:52;6.80;99.90
25983;DHT22;13773;48.868;10.730;2023-03-03T11:54:28;6.70;99.90
25983;DHT22;13773;48.868;10.730;2023-03-03T11:57:16;6.80;99.90
25983;DHT22;13773;48.868;10.730;2023-03-03T12:08:38;7.00;99.90
25983;DHT22;13773;48.868;10.730;2023-03-03T12:11:38;7.10;99.90
25983;DHT22;13773;48.868;10.730;2023-03-03T12:14:27;6.50;99.90
25983;DHT22;13773;48.868;10.730;2023-03-03T12:16:58;7.40;99.90
25983;DHT22;13773;48.868;10.730;2023-03-03T12:19:44;7.40;99.90
25983;DHT22;13773;48.868;10.730;2023-03-03T12:22:34;7.40;99.90
25983;DHT22;13773;48.868;10.730;2023-03-03T12:27:48;7.60;99.90
25983;DHT22;13773;48.868;10.730;2023-03-03T12:44:50;8.20;99.90
25983;DHT22;13773;48.868;10.730;2023-03-03T12:47:39;8.20;99.90
25983;DHT22;13773;48.868;10.730;2023-03-03T12:53:06;8.20;99.90
25983;DHT22;13773;48.868;10.730;2023-03-03T12:56:00;8.10;99.90
25983;DHT22;13773;48.868;10.730;2023-03-03T13:07:16;8.40;99.90
25983;DHT22;13773;48.868;10.730;2023-03-03T13:26:02;8.70;99.90
25983;DHT22;13773;48.868;10.730;2023-03-03T13:28:54;8.80;99.90
25983;DHT22;13773;48.868;10.730;2023-03-03T13:31:25;8.90;99.90
25983;DHT22;13773;48.868;10.730;2023-03-03T13:33:55;9.00;99.90
25983;DHT22;13773;48.868;10.730;2023-03-03T13:36:25;8.90;99.90
25983;DHT22;13773;48.868;10.730;2023-03-03T13:39:00;9.00;99.90
25983;DHT22;13773;48.868;10.730;2023-03-03T13:41:48;9.20;99.90
25983;DHT22;13773;48.868;10.730;2023-03-03T13:44:23;9.20;99.90
25983;DHT22;13773;48.868;10.730;2023-03-03T13:46:55;9.30;99.90
25983;DHT22;13773;48.868;10.730;2023-03-03T14:13:42;8.90;99.90
25983;DHT22;13773;48.868;10.730;2023-03-03T14:16:15;9.20;99.90
25983;DHT22;13773;48.868;10.730;2023-03-03T14:19:01;9.40;99.90
25983;DHT22;13773;48.868;10.730;2023-03-03T14:21:42;9.30;99.90
25983;DHT22;13773;48.868;10.730;2023-03-03T14:24:16;9.30;99.90
25983;DHT22;13773;48.868;10.730;2023-03-03T14:31:56;9.10;99.90
25983;DHT22;13773;48.868;10.730;2023-03-03T14:36:51;9.20;99.90
25983;DHT22;13773;48.868;10.730;2023-03-03T14:39:34;9.30;99.90
25983;DHT22;13773;48.868;10.730;2023-03-03T14:42:02;9.20;99.90
25983;DHT22;13773;48.868;10.730;2023-03-03T14:44:37;9.10;99.90
25983;DHT22;13773;48.868;10.730;2023-03-03T14:49:36;9.20;99.90
25983;DHT22;13773;48.868;10.730;2023-03-03T14:54:38;9.10;99.90
25983;DHT22;13773;48.868;10.730;2023-03-03T15:00:00;9.20;99.90
25983;DHT22;13773;48.868;10.730;2023-03-03T15:02:35;9.20;99.90
25983;DHT22;13773;48.868;10.730;2023-03-03T15:08:29;9.10;99.90
25983;DHT22;13773;48.868;10.730;2023-03-03T15:10:43;9.00;99.90
25983;DHT22;13773;48.868;10.730;2023-03-03T15:13:27;8.90;99.90
25983;DHT22;13773;48.868;10.730;2023-03-03T15:18:25;8.70;99.90
25983;DHT22;13773;48.868;10.730;2023-03-03T15:21:12;8.80;99.90
25983;DHT22;13773;48.868;10.730;2023-03-03T15:26:36;8.70;99.90
25983;DHT22;13773;48.868;10.730;2023-03-03T15:29:23;8.80;99.90
25983;DHT22;13773;48.868;10.730;2023-03-03T15:34:57;8.80;99.90
25983;DHT22;13773;48.868;10.730;2023-03-03T15:45:33;8.60;99.90
25983;DHT22;13773;48.868;10.730;2023-03-03T15:53:04;8.40;99.90
25983;DHT22;13773;48.868;10.730;2023-03-03T16:03:21;8.30;99.90
25983;DHT22;13773;48.868;10.730;2023-03-03T16:06:10;5.90;99.90
25983;DHT22;13773;48.868;10.730;2023-03-03T16:08:48;8.30;99.90
25983;DHT22;13773;48.868;10.730;2023-03-03T16:11:37;8.20;99.90
25983;DHT22;13773;48.868;10.730;2023-03-03T16:32:46;7.70;99.90
25983;DHT22;13773;48.868;10.730;2023-03-03T16:35:29;7.70;99.90
25983;DHT22;13773;48.868;10.730;2023-03-03T16:43:17;7.40;99.90
25983;DHT22;13773;48.868;10.730;2023-03-03T16:45:44;7.30;99.90
25983;DHT22;13773;48.868;10.730;2023-03-03T16:56:27;6.80;99.90
25983;DHT22;13773;48.868;10.730;2023-03-03T16:59:15;6.70;99.90
25983;DHT22;13773;48.868;10.730;2023-03-03T17:01:57;6.50;99.90
25983;DHT22;13773;48.868;10.730;2023-03-03T17:04:51;6.30;99.90
25983;DHT22;13773;48.868;10.730;2023-03-03T17:10:28;6.00;99.90
25983;DHT22;13773;48.868;10.730;2023-03-03T17:24:22;5.40;99.90
25983;DHT22;13773;48.868;10.730;2023-03-03T17:26:59;5.30;99.90
25983;DHT22;13773;48.868;10.730;2023-03-03T17:29:53;5.20;99.90
25983;DHT22;13773;48.868;10.730;2023-03-03T17:40:57;5.00;99.90
25983;DHT22;13773;48.868;10.730;2023-03-03T17:46:12;5.00;99.90
25983;DHT22;13773;48.868;10.730;2023-03-03T17:49:03;4.90;99.90
25983;DHT22;13773;48.868;10.730;2023-03-03T18:05:54;4.70;99.90
25983;DHT22;13773;48.868;10.730;2023-03-03T18:14:14;4.50;99.90
25983;DHT22;13773;48.868;10.730;2023-03-03T18:22:23;4.30;99.90
25983;DHT22;13773;48.868;10.730;2023-03-03T18:27:31;4.10;99.90
25983;DHT22;13773;48.868;10.730;2023-03-03T18:35:35;4.20;99.90
25983;DHT22;13773;48.868;10.730;2023-03-03T18:49:07;4.80;99.90
25983;DHT22;13773;48.868;10.730;2023-03-03T19:07:23;3.70;99.90
25983;DHT22;13773;48.868;10.730;2023-03-03T19:09:56;3.40;99.90
25983;DHT22;13773;48.868;10.730;2023-03-03T19:12:51;3.10;99.90
25983;DHT22;13773;48.868;10.730;2023-03-03T19:20:59;2.80;99.90
25983;DHT22;13773;48.868;10.730;2023-03-03T19:34:53;2.10;99.90
25983;DHT22;13773;48.868;10.730;2023-03-03T19:37:56;2.00;99.90
25983;DHT22;13773;48.868;10.730;2023-03-03T19:52:05;1.90;99.90
25983;DHT22;13773;48.868;10.730;2023-03-03T20:22:40;1.20;99.90
25983;DHT22;13773;48.868;10.730;2023-03-03T20:34:19;0.80;99.90
25983;DHT22;13773;48.868;10.730;2023-03-03T20:42:08;0.80;99.90
25983;DHT22;13773;48.868;10.730;2023-03-03T20:52:41;0.60;99.90
25983;DHT22;13773;48.868;10.730;2023-03-03T20:58:06;0.70;99.90
25983;DHT22;13773;48.868;10.730;2023-03-03T21:03:42;0.60;99.90
25983;DHT22;13773;48.868;10.730;2023-03-03T21:06:14;0.60;99.90
25983;DHT22;13773;48.868;10.730;2023-03-03T21:08:49;0.40;99.90
25983;DHT22;13773;48.868;10.730;2023-03-03T21:13:57;0.30;99.90
25983;DHT22;13773;48.868;10.730;2023-03-03T21:18:59;0.30;99.90
25983;DHT22;13773;48.868;10.730;2023-03-03T21:21:26;0.30;99.90
25983;DHT22;13773;48.868;10.730;2023-03-03T21:23:52;0.30;99.90
25983;DHT22;13773;48.868;10.730;2023-03-03T21:26:53;0.30;99.90
25983;DHT22;13773;48.868;10.730;2023-03-03T21:31:54;0.40;99.90
25983;DHT22;13773;48.868;10.730;2023-03-03T21:34:26;0.40;99.90
25983;DHT22;13773;48.868;10.730;2023-03-03T21:36:53;0.20;99.90
25983;DHT22;13773;48.868;10.730;2023-03-03T21:42:16;-0.10;99.90
25983;DHT22;13773;48.868;10.730;2023-03-03T21:44:50;0.00;99.90
25983;DHT22;13773;48.868;10.730;2023-03-03T21:47:18;0.00;99.90
25983;DHT22;13773;48.868;10.730;2023-03-03T21:49:46;0.10;99.90
25983;DHT22;13773;48.868;10.730;2023-03-03T21:52:14;0.00;99.90
25983;DHT22;13773;48.868;10.730;2023-03-03T21:54:41;-0.10;99.90
25983;DHT22;13773;48.868;10.730;2023-03-03T21:57:07;-0.10;99.90
25983;DHT22;13773;48.868;10.730;2023-03-03T21:59:33;-0.20;99.90
25983;DHT22;13773;48.868;10.730;2023-03-03T22:01:58;-0.10;99.90
25983;DHT22;13773;48.868;10.730;2023-03-03T22:04:25;-0.20;99.90
25983;DHT22;13773;48.868;10.730;2023-03-03T22:06:51;-0.30;99.90
25983;DHT22;13773;48.868;10.730;2023-03-03T22:09:19;-0.40;99.90
25983;DHT22;13773;48.868;10.730;2023-03-03T22:11:45;-0.30;99.90
25983;DHT22;13773;48.868;10.730;2023-03-03T22:14:11;-0.20;99.90
25983;DHT22;13773;48.868;10.730;2023-03-03T22:16:37;-0.20;99.90
25983;DHT22;13773;48.868;10.730;2023-03-03T22:19:03;-0.20;99.90
25983;DHT22;13773;48.868;10.730;2023-03-03T22:21:29;-0.20;99.90
25983;DHT22;13773;48.868;10.730;2023-03-03T22:23:56;-0.30;99.90
25983;DHT22;13773;48.868;10.730;2023-03-03T22:26:21;-0.30;99.90
25983;DHT22;13773;48.868;10.730;2023-03-03T22:28:47;-0.20;99.90
25983;DHT22;13773;48.868;10.730;2023-03-03T22:31:14;-0.30;99.90
25983;DHT22;13773;48.868;10.730;2023-03-03T22:33:40;-0.40;99.90
25983;DHT22;13773;48.868;10.730;2023-03-03T22:36:06;-0.40;99.90
25983;DHT22;13773;48.868;10.730;2023-03-03T22:38:33;-0.50;99.90
25983;DHT22;13773;48.868;10.730;2023-03-03T22:41:00;-0.60;99.90
25983;DHT22;13773;48.868;10.730;2023-03-03T22:43:26;-0.50;99.90
25983;DHT22;13773;48.868;10.730;2023-03-03T22:45:54;-0.60;99.90
25983;DHT22;13773;48.868;10.730;2023-03-03T22:48:20;-0.40;99.90
25983;DHT22;13773;48.868;10.730;2023-03-03T22:50:48;-0.30;99.90
25983;DHT22;13773;48.868;10.730;2023-03-03T22:53:14;-0.20;99.90
25983;DHT22;13773;48.868;10.730;2023-03-03T22:55:39;-0.30;99.90
25983;DHT22;13773;48.868;10.730;2023-03-03T22:58:07;-0.30;99.90
25983;DHT22;13773;48.868;10.730;2023-03-03T23:00:34;-0.40;99.90
25983;DHT22;13773;48.868;10.730;2023-03-03T23:03:05;-0.50;99.90
25983;DHT22;13773;48.868;10.730;2023-03-03T23:05:31;-0.40;99.90
25983;DHT22;13773;48.868;10.730;2023-03-03T23:07:57;-0.50;99.90
25983;DHT22;13773;48.868;10.730;2023-03-03T23:10:23;-0.60;99.90
25983;DHT22;13773;48.868;10.730;2023-03-03T23:12:49;-0.60;99.90
25983;DHT22;13773;48.868;10.730;2023-03-03T23:15:15;-0.60;99.90
25983;DHT22;13773;48.868;10.730;2023-03-03T23:17:41;-0.60;99.90